Time;durP1;ratioP1;P1;durP2;ratioP2;P2;SDS_P1;SDS_P2;PMS_P1;PMS_P2;Temp;Humidity;BMP_temperature;BMP_pressure;BME280_temperature;BME280_humidity;BME280_pressure;Samples;Min_cycle;Max_cycle;Signal;HPM_P1;HPM_P2
2023/11/14 00:00:06;;;;;;;32.55;4.18;;;12.20;99.90;;;;;;5047526;28;20117;-61
2023/11/14 00:02:33;;;;;;;27.95;4.57;;;12.20;99.90;;;;;;5044268;28;20053;-61
2023/11/14 00:04:58;;;;;;;34.35;4.38;;;12.20;99.90;;;;;;5046999;28;20060;-62
2023/11/14 00:07:24;;;;;;;36.65;4.72;;;12.20;99.90;;;;;;5046827;28;20056;-61
2023/11/14 00:09:50;;;;;;;32.08;4.10;;;12.20;99.90;;;;;;5037438;28;20025;-60
2023/11/14 00:12:16;;;;;;;30.23;4.18;;;12.20;99.90;;;;;;5044528;28;20022;-60
2023/11/14 00:14:45;;;;;;;40.33;5.82;;;12.20;99.90;;;;;;5045040;28;20028;-59
2023/11/14 00:17:11;;;;;;;40.50;4.10;;;12.20;99.90;;;;;;5047345;28;20025;-59
2023/11/14 00:19:38;;;;;;;30.70;4.35;;;12.10;99.90;;;;;;5044468;28;20018;-61
2023/11/14 00:22:04;;;;;;;38.40;4.00;;;12.10;99.90;;;;;;5041706;28;20140;-60
2023/11/14 00:24:30;;;;;;;37.97;4.68;;;12.10;99.90;;;;;;5041001;28;20052;-59
2023/11/14 00:26:58;;;;;;;32.22;4.45;;;12.20;99.90;;;;;;5045932;28;20090;-58
2023/11/14 00:29:24;;;;;;;42.35;4.13;;;12.10;99.90;;;;;;5043075;28;20041;-61
2023/11/14 00:31:49;;;;;;;35.72;5.38;;;12.10;99.90;;;;;;5046873;28;20392;-60
2023/11/14 00:34:15;;;;;;;28.17;4.68;;;12.20;99.90;;;;;;5038836;28;20090;-61
2023/11/14 00:36:43;;;;;;;36.33;4.75;;;12.20;99.90;;;;;;5044470;28;20033;-59
2023/11/14 00:39:10;;;;;;;35.67;4.22;;;12.10;99.90;;;;;;5046453;28;20502;-60
2023/11/14 00:41:36;;;;;;;36.50;4.07;;;12.20;99.90;;;;;;5042735;28;20033;-61
2023/11/14 00:44:02;;;;;;;31.05;3.70;;;12.10;99.90;;;;;;5040508;28;20036;-60
2023/11/14 00:46:28;;;;;;;36.38;4.95;;;12.10;99.90;;;;;;5042293;28;20029;-61
2023/11/14 00:48:54;;;;;;;28.27;4.43;;;12.10;99.90;;;;;;5047632;28;20074;-62
2023/11/14 00:51:19;;;;;;;44.88;4.55;;;12.00;99.90;;;;;;5043935;28;20041;-60
2023/11/14 00:53:45;;;;;;;39.95;4.93;;;12.10;99.90;;;;;;5036123;28;20036;-62
2023/11/14 00:56:11;;;;;;;31.67;4.90;;;12.10;99.90;;;;;;5046310;28;20114;-61
2023/11/14 00:58:37;;;;;;;33.38;4.05;;;12.10;99.90;;;;;;5046321;28;20111;-62
2023/11/14 01:01:04;;;;;;;29.30;4.75;;;12.10;99.90;;;;;;5045285;28;20037;-61
2023/11/14 01:03:29;;;;;;;35.13;4.38;;;12.20;99.90;;;;;;5042215;28;20561;-61
2023/11/14 01:05:55;;;;;;;40.95;5.05;;;12.20;99.90;;;;;;5042598;28;20048;-61
2023/11/14 01:08:21;;;;;;;43.38;6.10;;;12.20;99.90;;;;;;5043013;28;20025;-62
2023/11/14 01:10:47;;;;;;;39.47;4.80;;;12.20;99.90;;;;;;5043102;28;20018;-61
2023/11/14 01:13:13;;;;;;;43.97;4.72;;;12.10;99.90;;;;;;5045804;28;20021;-58
2023/11/14 01:15:39;;;;;;;31.90;4.35;;;12.10;99.90;;;;;;5044654;28;20025;-60
2023/11/14 01:18:05;;;;;;;31.15;4.55;;;12.20;99.90;;;;;;5039037;28;20013;-61
2023/11/14 01:20:31;;;;;;;36.22;4.25;;;12.30;99.90;;;;;;5041734;28;20029;-59
2023/11/14 01:22:56;;;;;;;44.55;6.05;;;12.30;99.90;;;;;;5047732;28;20063;-61
2023/11/14 01:25:22;;;;;;;38.00;5.80;;;12.30;99.90;;;;;;5039502;28;20056;-59
2023/11/14 01:27:47;;;;;;;39.88;5.10;;;12.30;99.90;;;;;;5038764;28;20036;-60
2023/11/14 01:30:13;;;;;;;25.65;4.60;;;12.30;99.90;;;;;;5037855;28;20034;-55
2023/11/14 01:32:39;;;;;;;30.13;5.38;;;12.30;99.90;;;;;;5044356;28;20553;-61
2023/11/14 01:35:05;;;;;;;34.65;5.93;;;12.30;99.90;;;;;;5041253;28;20045;-63
2023/11/14 01:37:32;;;;;;;43.17;5.88;;;12.30;99.90;;;;;;5038584;28;20399;-60
2023/11/14 01:39:58;;;;;;;33.75;4.90;;;12.30;99.90;;;;;;5042238;28;20034;-61
2023/11/14 01:42:23;;;;;;;30.63;4.10;;;12.40;99.90;;;;;;5042162;28;20148;-58
2023/11/14 01:44:49;;;;;;;39.53;4.40;;;12.40;99.90;;;;;;5039398;28;20112;-59
2023/11/14 01:47:15;;;;;;;29.13;4.88;;;12.30;99.90;;;;;;5040820;28;20506;-59
2023/11/14 01:49:41;;;;;;;41.70;4.70;;;12.30;99.90;;;;;;5036508;28;20494;-61
2023/11/14 01:52:08;;;;;;;39.65;4.68;;;12.30;99.90;;;;;;5043004;28;20033;-60
2023/11/14 01:54:33;;;;;;;35.97;4.30;;;12.30;99.90;;;;;;5040063;28;20029;-61
2023/11/14 01:57:00;;;;;;;31.75;4.32;;;12.20;99.90;;;;;;5044341;28;20033;-60
2023/11/14 01:59:26;;;;;;;36.92;5.45;;;12.20;99.90;;;;;;5036979;28;20095;-60
2023/11/14 02:01:52;;;;;;;40.20;4.45;;;12.20;99.90;;;;;;5043710;28;20033;-61
2023/11/14 02:04:21;;;;;;;34.42;4.85;;;12.20;99.90;;;;;;5037455;28;20040;-59
2023/11/14 02:06:47;;;;;;;31.83;4.90;;;12.20;99.90;;;;;;5045281;28;20021;-60
2023/11/14 02:09:13;;;;;;;38.17;4.18;;;12.10;99.90;;;;;;5034310;28;20490;-60
2023/11/14 02:11:45;;;;;;;30.80;4.85;;;12.10;99.90;;;;;;5044351;28;20049;-61
2023/11/14 02:14:11;;;;;;;23.60;4.43;;;12.20;99.90;;;;;;5045130;28;20499;-60
2023/11/14 02:16:50;;;;;;;30.80;4.32;;;12.10;99.90;;;;;;5048125;28;20033;-61
2023/11/14 02:19:15;;;;;;;31.60;4.35;;;12.10;99.90;;;;;;5048092;28;20037;-61
2023/11/14 02:21:42;;;;;;;42.45;4.60;;;12.20;99.90;;;;;;5043159;28;20025;-60
2023/11/14 02:24:12;;;;;;;36.85;4.22;;;12.10;99.90;;;;;;5047325;28;20509;-60
2023/11/14 02:26:38;;;;;;;41.83;4.72;;;12.10;99.90;;;;;;5047299;28;20027;-61
2023/11/14 02:29:03;;;;;;;39.70;4.40;;;12.10;99.90;;;;;;5045329;28;20029;-60
2023/11/14 02:31:29;;;;;;;30.00;4.82;;;12.00;99.90;;;;;;5043277;28;20443;-59
2023/11/14 02:33:55;;;;;;;27.40;3.95;;;12.10;99.90;;;;;;5053050;28;20434;-60
2023/11/14 02:36:20;;;;;;;41.22;4.75;;;12.10;99.90;;;;;;5045489;28;20147;-61
2023/11/14 02:38:46;;;;;;;38.97;4.90;;;12.10;99.90;;;;;;5050517;28;20021;-61
2023/11/14 02:41:15;;;;;;;34.42;4.95;;;12.10;99.90;;;;;;5046663;28;20062;-59
2023/11/14 02:43:41;;;;;;;38.95;4.85;;;12.20;99.90;;;;;;5041506;28;20051;-60
2023/11/14 02:46:07;;;;;;;48.88;5.13;;;12.10;99.90;;;;;;5042292;28;20105;-58
2023/11/14 02:48:32;;;;;;;29.73;5.93;;;12.20;99.90;;;;;;5043700;28;20505;-61
2023/11/14 02:50:58;;;;;;;31.20;4.25;;;12.10;99.90;;;;;;5040268;28;20096;-61
2023/11/14 02:53:23;;;;;;;29.92;4.82;;;12.10;99.90;;;;;;5046852;28;20037;-60
2023/11/14 02:55:51;;;;;;;34.40;4.38;;;12.20;99.90;;;;;;5048204;28;20036;-61
2023/11/14 02:58:18;;;;;;;37.40;4.72;;;12.10;99.90;;;;;;5044873;28;20037;-61
2023/11/14 03:00:51;;;;;;;33.42;4.82;;;12.10;99.90;;;;;;5042464;28;20028;-61
2023/11/14 03:03:20;;;;;;;26.63;3.77;;;12.10;99.90;;;;;;5046166;28;20029;-61
2023/11/14 03:05:46;;;;;;;33.03;4.53;;;12.20;99.90;;;;;;5039277;28;20275;-60
2023/11/14 03:08:12;;;;;;;45.75;6.43;;;12.20;99.90;;;;;;5042234;28;20033;-61
2023/11/14 03:10:39;;;;;;;38.72;3.88;;;12.20;99.90;;;;;;5040287;28;20030;-62
2023/11/14 03:13:06;;;;;;;31.65;4.68;;;12.10;99.90;;;;;;5048957;28;20013;-61
2023/11/14 03:15:32;;;;;;;34.63;4.13;;;12.10;99.90;;;;;;5037810;28;20057;-61
2023/11/14 03:17:58;;;;;;;34.58;5.30;;;12.10;99.90;;;;;;5045718;28;20084;-60
2023/11/14 03:20:25;;;;;;;35.42;5.15;;;12.00;99.90;;;;;;5040167;28;20116;-62
2023/11/14 03:22:51;;;;;;;30.85;3.83;;;12.00;99.90;;;;;;5042626;28;20060;-60
2023/11/14 03:25:17;;;;;;;33.42;4.63;;;11.90;99.90;;;;;;5033853;28;20099;-62
2023/11/14 03:27:42;;;;;;;45.25;5.90;;;11.90;99.90;;;;;;5045652;28;20033;-60
2023/11/14 03:30:09;;;;;;;39.67;5.28;;;12.00;99.90;;;;;;5042430;28;20028;-60
2023/11/14 03:32:35;;;;;;;28.85;5.43;;;12.00;99.90;;;;;;5045769;28;20407;-60
2023/11/14 03:35:01;;;;;;;39.65;4.45;;;12.00;99.90;;;;;;5041664;28;20079;-59
2023/11/14 03:37:27;;;;;;;28.65;3.72;;;12.10;99.90;;;;;;5045468;28;20124;-60
2023/11/14 03:39:52;;;;;;;37.42;4.70;;;12.00;99.90;;;;;;5042465;28;20116;-61
2023/11/14 03:42:18;;;;;;;34.20;4.88;;;12.00;99.90;;;;;;5042808;28;20108;-60
2023/11/14 03:44:44;;;;;;;45.15;5.60;;;12.10;99.90;;;;;;5038209;28;20087;-59
2023/11/14 03:47:09;;;;;;;32.65;4.55;;;12.10;99.90;;;;;;5042620;28;20024;-59
2023/11/14 03:49:35;;;;;;;43.47;4.55;;;12.10;99.90;;;;;;5041969;28;20515;-61
2023/11/14 03:52:01;;;;;;;39.25;4.80;;;12.20;99.90;;;;;;5042573;28;20495;-59
2023/11/14 03:54:26;;;;;;;41.83;5.32;;;12.10;99.90;;;;;;5041918;28;20104;-60
2023/11/14 03:56:52;;;;;;;36.75;4.45;;;12.20;99.90;;;;;;5044716;28;20038;-60
2023/11/14 03:59:17;;;;;;;39.65;4.07;;;12.20;99.90;;;;;;5040847;28;20083;-60
2023/11/14 04:01:43;;;;;;;36.95;4.97;;;12.20;99.90;;;;;;5042942;28;20048;-60
2023/11/14 04:04:08;;;;;;;42.90;4.25;;;12.20;99.90;;;;;;5039707;28;20029;-60
2023/11/14 04:06:34;;;;;;;39.38;4.60;;;12.10;99.90;;;;;;5042316;28;20057;-60
2023/11/14 04:08:59;;;;;;;49.83;5.05;;;12.10;99.90;;;;;;5042336;28;20025;-59
2023/11/14 04:11:25;;;;;;;35.15;5.00;;;12.10;99.90;;;;;;5041126;28;20500;-60
2023/11/14 04:13:51;;;;;;;31.13;5.38;;;12.20;99.90;;;;;;5041628;28;20035;-60
2023/11/14 04:16:16;;;;;;;31.17;4.15;;;12.30;99.90;;;;;;5038534;28;20124;-60
2023/11/14 04:18:42;;;;;;;31.23;5.25;;;12.30;99.90;;;;;;5039491;28;20043;-60
2023/11/14 04:21:09;;;;;;;32.85;4.22;;;12.20;99.90;;;;;;5044351;28;22025;-64
2023/11/14 04:23:35;;;;;;;35.78;4.85;;;12.30;99.90;;;;;;5040806;28;20186;-61
2023/11/14 04:26:01;;;;;;;31.00;4.00;;;12.30;99.90;;;;;;5040470;28;20045;-61
2023/11/14 04:28:27;;;;;;;33.90;3.97;;;12.30;99.90;;;;;;5041727;28;20108;-59
2023/11/14 04:30:52;;;;;;;26.65;4.47;;;12.40;99.90;;;;;;5036750;28;20117;-60
2023/11/14 04:33:18;;;;;;;42.25;4.75;;;12.40;99.90;;;;;;5040691;28;20033;-60
2023/11/14 04:35:44;;;;;;;35.50;4.57;;;12.40;99.90;;;;;;5042459;28;20462;-60
2023/11/14 04:38:10;;;;;;;32.78;4.95;;;12.50;99.90;;;;;;5044189;28;20033;-60
2023/11/14 04:40:36;;;;;;;31.17;3.72;;;12.60;99.90;;;;;;5039446;28;20036;-61
2023/11/14 04:43:01;;;;;;;39.97;4.22;;;12.50;99.90;;;;;;5044880;28;20021;-61
2023/11/14 04:45:27;;;;;;;40.42;4.40;;;12.50;99.90;;;;;;5043265;28;20116;-60
2023/11/14 04:47:53;;;;;;;43.50;4.68;;;12.50;99.90;;;;;;5043751;28;20017;-60
2023/11/14 04:50:22;;;;;;;36.88;4.68;;;12.60;99.90;;;;;;5034499;28;20431;-61
2023/11/14 04:52:48;;;;;;;33.90;4.47;;;12.60;99.90;;;;;;5047091;28;20017;-61
2023/11/14 04:55:13;;;;;;;29.33;3.83;;;12.50;99.90;;;;;;5049227;28;20109;-58
2023/11/14 04:57:39;;;;;;;30.25;4.05;;;12.50;99.90;;;;;;5038922;28;20061;-60
2023/11/14 05:00:08;;;;;;;22.00;3.85;;;12.50;99.90;;;;;;5039705;28;20025;-61
2023/11/14 05:02:34;;;;;;;40.85;4.10;;;12.50;99.90;;;;;;5046010;28;20059;-61
2023/11/14 05:04:59;;;;;;;36.42;5.63;;;12.50;99.90;;;;;;5040258;28;20056;-61
2023/11/14 05:07:25;;;;;;;26.40;4.45;;;12.50;99.90;;;;;;5043761;28;20526;-58
2023/11/14 05:09:52;;;;;;;25.65;4.57;;;12.50;99.90;;;;;;5040245;28;20511;-61
2023/11/14 05:12:17;;;;;;;33.53;4.05;;;12.40;99.90;;;;;;5040022;28;20026;-60
2023/11/14 05:14:45;;;;;;;38.55;3.75;;;12.50;99.90;;;;;;5034876;28;20043;-61
2023/11/14 05:17:10;;;;;;;30.05;4.95;;;12.40;99.90;;;;;;5037041;28;20037;-61
2023/11/14 05:19:36;;;;;;;29.25;4.05;;;12.40;99.90;;;;;;5038021;28;20125;-60
2023/11/14 05:22:02;;;;;;;27.02;3.85;;;12.40;99.90;;;;;;5040689;28;20107;-60
2023/11/14 05:24:28;;;;;;;29.33;4.15;;;12.40;99.90;;;;;;5040487;28;20033;-62
2023/11/14 05:26:54;;;;;;;34.40;4.22;;;12.40;99.90;;;;;;5038216;28;20086;-61
2023/11/14 05:29:19;;;;;;;36.30;4.63;;;12.40;99.90;;;;;;5033549;28;20088;-59
2023/11/14 05:31:45;;;;;;;29.80;3.95;;;12.40;99.90;;;;;;5040017;28;20036;-60
2023/11/14 05:34:11;;;;;;;44.83;5.07;;;12.40;99.90;;;;;;5042913;28;20057;-60
2023/11/14 05:36:37;;;;;;;38.67;5.45;;;12.40;99.90;;;;;;5033906;28;20060;-57
2023/11/14 05:39:04;;;;;;;37.03;5.57;;;12.40;99.90;;;;;;5041654;28;20025;-59
2023/11/14 05:41:30;;;;;;;22.13;3.58;;;12.50;99.90;;;;;;5033904;28;20059;-61
2023/11/14 05:43:57;;;;;;;30.38;4.82;;;12.40;99.90;;;;;;5036030;28;20025;-60
2023/11/14 05:46:22;;;;;;;32.67;4.15;;;12.40;99.90;;;;;;5042480;28;20159;-60
2023/11/14 05:48:48;;;;;;;33.70;5.28;;;12.40;99.90;;;;;;5045810;28;20112;-60
2023/11/14 05:51:13;;;;;;;36.10;4.65;;;12.40;99.90;;;;;;5040977;28;20048;-61
2023/11/14 05:53:40;;;;;;;38.83;4.47;;;12.40;99.90;;;;;;5038153;28;20098;-60
2023/11/14 05:56:05;;;;;;;26.20;4.18;;;12.40;99.90;;;;;;5035578;28;20033;-61
2023/11/14 05:58:31;;;;;;;36.00;4.20;;;12.40;99.90;;;;;;5034348;28;20036;-60
2023/11/14 06:00:57;;;;;;;22.30;3.72;;;12.50;99.90;;;;;;5043618;28;20025;-60
2023/11/14 06:03:23;;;;;;;27.08;4.35;;;12.50;99.90;;;;;;5036761;28;20025;-60
2023/11/14 06:05:48;;;;;;;29.73;3.65;;;12.40;99.90;;;;;;5034866;28;20044;-60
2023/11/14 06:08:14;;;;;;;47.80;4.47;;;12.40;99.90;;;;;;5038231;28;20036;-66
2023/11/14 06:10:39;;;;;;;33.40;4.43;;;12.40;99.90;;;;;;5040113;28;20033;-66
2023/11/14 06:13:05;;;;;;;39.50;4.68;;;12.50;99.90;;;;;;5037168;28;20462;-66
2023/11/14 06:15:31;;;;;;;36.45;5.38;;;12.50;99.90;;;;;;5036059;28;20391;-66
2023/11/14 06:17:56;;;;;;;37.50;4.80;;;12.60;99.90;;;;;;5037651;28;20503;-67
2023/11/14 06:20:22;;;;;;;31.38;3.65;;;12.50;99.90;;;;;;5040864;28;20395;-65
2023/11/14 06:22:51;;;;;;;38.10;5.45;;;12.40;99.90;;;;;;5042006;28;20094;-66
2023/11/14 06:25:17;;;;;;;29.10;4.50;;;12.40;99.90;;;;;;5040575;28;20025;-66
2023/11/14 06:27:43;;;;;;;51.08;4.80;;;12.50;99.90;;;;;;5038125;28;20032;-66
2023/11/14 06:30:09;;;;;;;38.17;5.13;;;12.50;99.90;;;;;;5036634;28;20063;-65
2023/11/14 06:32:35;;;;;;;34.35;4.97;;;12.50;99.90;;;;;;5040423;28;20100;-64
2023/11/14 06:35:02;;;;;;;35.95;4.25;;;12.40;99.90;;;;;;5029249;28;20104;-66
2023/11/14 06:37:27;;;;;;;35.47;4.40;;;12.40;99.90;;;;;;5033927;28;20045;-65
2023/11/14 06:39:55;;;;;;;30.40;4.85;;;12.40;99.90;;;;;;5035103;28;20036;-66
2023/11/14 06:42:24;;;;;;;31.92;3.50;;;12.60;99.90;;;;;;5038846;28;20392;-67
2023/11/14 06:44:50;;;;;;;34.33;3.88;;;12.50;99.90;;;;;;5038878;28;20021;-67
2023/11/14 06:47:16;;;;;;;41.75;4.90;;;12.50;99.90;;;;;;5040682;28;20450;-67
2023/11/14 06:49:43;;;;;;;28.27;4.03;;;12.40;99.90;;;;;;5038936;28;20017;-66
2023/11/14 06:52:08;;;;;;;37.85;5.15;;;12.40;99.90;;;;;;5038062;28;20068;-67
2023/11/14 06:54:34;;;;;;;30.67;5.97;;;12.40;99.90;;;;;;5042044;28;20025;-67
2023/11/14 06:56:59;;;;;;;36.65;4.88;;;12.40;99.90;;;;;;5040755;28;20021;-67
2023/11/14 06:59:25;;;;;;;39.17;5.75;;;12.50;99.90;;;;;;5031638;28;20029;-67
2023/11/14 07:01:52;;;;;;;40.97;4.40;;;12.50;99.90;;;;;;5043136;28;20025;-67
2023/11/14 07:04:18;;;;;;;23.65;4.05;;;12.40;99.90;;;;;;5060327;28;20149;-67
2023/11/14 07:06:44;;;;;;;32.65;4.05;;;12.50;99.90;;;;;;5041129;28;20128;-69
2023/11/14 07:09:11;;;;;;;32.03;4.00;;;12.50;99.90;;;;;;5035482;28;20104;-68
2023/11/14 07:11:37;;;;;;;56.13;5.70;;;12.50;99.90;;;;;;5042653;28;20021;-67
2023/11/14 07:14:02;;;;;;;34.50;4.20;;;12.50;99.90;;;;;;5038040;28;20025;-68
2023/11/14 07:16:28;;;;;;;29.95;3.92;;;12.40;99.90;;;;;;5037029;28;20072;-69
2023/11/14 07:18:54;;;;;;;27.38;4.55;;;12.50;99.90;;;;;;5042036;28;20073;-67
2023/11/14 07:21:19;;;;;;;35.97;5.32;;;12.50;99.90;;;;;;5034039;28;20124;-68
2023/11/14 07:23:45;;;;;;;28.15;3.55;;;12.60;99.90;;;;;;5054021;28;20037;-68
2023/11/14 07:26:10;;;;;;;41.00;5.22;;;12.50;99.90;;;;;;5035972;28;20038;-69
2023/11/14 07:28:37;;;;;;;31.35;3.78;;;12.60;99.90;;;;;;5045793;28;20040;-69
2023/11/14 07:31:03;;;;;;;29.05;4.05;;;12.60;99.90;;;;;;5039215;28;20025;-68
2023/11/14 07:33:28;;;;;;;28.70;4.18;;;12.60;99.90;;;;;;5044364;28;20067;-68
2023/11/14 07:35:56;;;;;;;29.83;4.63;;;12.60;99.90;;;;;;5040503;28;20079;-69
2023/11/14 07:38:21;;;;;;;24.15;4.35;;;12.60;99.90;;;;;;5041525;28;20072;-68
2023/11/14 07:40:47;;;;;;;45.30;5.90;;;12.70;99.90;;;;;;5046960;28;20025;-68
2023/11/14 07:43:14;;;;;;;45.22;4.15;;;12.70;99.90;;;;;;5043700;28;20032;-68
2023/11/14 07:45:40;;;;;;;32.10;4.35;;;12.70;99.90;;;;;;5035697;28;20499;-68
2023/11/14 07:48:07;;;;;;;23.90;3.67;;;12.70;99.90;;;;;;5035782;28;20057;-68
2023/11/14 07:50:33;;;;;;;27.50;3.97;;;12.70;99.90;;;;;;5039050;28;20017;-68
2023/11/14 07:52:58;;;;;;;26.77;3.35;;;12.70;99.90;;;;;;5042594;28;20028;-68
2023/11/14 07:55:24;;;;;;;38.05;4.25;;;12.70;99.90;;;;;;5039708;28;20635;-68
2023/11/14 07:57:50;;;;;;;30.90;3.90;;;12.80;99.90;;;;;;5044293;28;20475;-68
2023/11/14 08:00:16;;;;;;;29.90;4.22;;;12.80;99.90;;;;;;5038187;28;20120;-68
2023/11/14 08:02:42;;;;;;;25.38;3.33;;;12.80;99.90;;;;;;5039053;28;20021;-66
2023/11/14 08:05:08;;;;;;;24.95;3.58;;;12.80;99.90;;;;;;5042110;28;20024;-69
2023/11/14 08:07:34;;;;;;;18.70;2.80;;;12.80;99.90;;;;;;5041619;28;20412;-69
2023/11/14 08:10:00;;;;;;;25.58;2.97;;;12.80;99.90;;;;;;5041949;28;20025;-67
2023/11/14 08:12:26;;;;;;;30.23;3.80;;;12.80;99.90;;;;;;5044017;28;20492;-67
2023/11/14 08:14:52;;;;;;;29.80;3.08;;;12.80;99.90;;;;;;5034627;28;20536;-67
2023/11/14 08:17:17;;;;;;;22.63;3.22;;;12.80;99.90;;;;;;5042343;28;20082;-67
2023/11/14 08:19:45;;;;;;;21.02;3.28;;;12.80;99.90;;;;;;5037415;28;20264;-67
2023/11/14 08:22:11;;;;;;;28.90;4.13;;;12.90;99.90;;;;;;5039942;28;20044;-67
2023/11/14 08:24:37;;;;;;;23.08;3.17;;;12.90;99.90;;;;;;5039897;28;20025;-67
2023/11/14 08:27:04;;;;;;;22.77;3.85;;;12.90;99.90;;;;;;5039949;28;20108;-66
2023/11/14 08:29:30;;;;;;;27.42;4.40;;;13.00;99.90;;;;;;5038278;28;20025;-67
2023/11/14 08:31:56;;;;;;;30.33;3.65;;;13.00;99.90;;;;;;5041469;28;20028;-67
2023/11/14 08:34:22;;;;;;;19.38;2.67;;;13.00;99.90;;;;;;5036051;28;20030;-67
2023/11/14 08:36:47;;;;;;;23.77;3.67;;;13.00;99.90;;;;;;5040896;28;20530;-67
2023/11/14 08:39:13;;;;;;;23.27;5.03;;;13.10;99.90;;;;;;5034587;28;20029;-67
2023/11/14 08:41:42;;;;;;;32.38;3.17;;;13.10;99.90;;;;;;5042280;28;20021;-63
2023/11/14 08:44:08;;;;;;;29.65;3.72;;;13.10;99.90;;;;;;5045338;28;20033;-63
2023/11/14 08:46:34;;;;;;;27.67;3.67;;;13.10;99.90;;;;;;5043608;28;20446;-63
2023/11/14 08:49:02;;;;;;;23.50;3.60;;;13.20;99.90;;;;;;5038479;28;20025;-63
2023/11/14 08:51:27;;;;;;;20.25;3.88;;;13.20;99.90;;;;;;5038255;28;20051;-62
2023/11/14 08:53:53;;;;;;;22.13;3.33;;;13.20;99.90;;;;;;5048288;28;20049;-63
2023/11/14 08:56:19;;;;;;;25.67;4.10;;;13.30;99.90;;;;;;5036818;28;20376;-63
2023/11/14 08:58:44;;;;;;;28.92;4.25;;;13.20;99.90;;;;;;5037285;28;20022;-64
2023/11/14 09:01:14;;;;;;;20.65;3.83;;;13.20;99.90;;;;;;5043445;28;20028;-64
2023/11/14 09:03:40;;;;;;;34.05;3.63;;;13.20;99.90;;;;;;5040457;28;20032;-64
2023/11/14 09:06:07;;;;;;;32.83;3.08;;;13.20;99.90;;;;;;5040995;28;20561;-64
2023/11/14 09:08:34;;;;;;;22.23;3.47;;;13.20;99.90;;;;;;5031132;28;20013;-64
2023/11/14 09:10:59;;;;;;;25.42;3.05;;;13.30;99.90;;;;;;5033161;28;20104;-64
2023/11/14 09:13:25;;;;;;;31.25;4.20;;;13.30;99.90;;;;;;5041581;28;20113;-64
2023/11/14 09:15:50;;;;;;;26.95;4.85;;;13.30;99.90;;;;;;5048247;28;20104;-63
2023/11/14 09:18:16;;;;;;;28.02;4.35;;;13.30;99.90;;;;;;5041707;28;20029;-64
2023/11/14 09:20:43;;;;;;;27.33;3.30;;;13.40;99.90;;;;;;5040718;28;20550;-64
2023/11/14 09:23:08;;;;;;;29.60;3.42;;;13.40;99.90;;;;;;5040603;28;20037;-64
2023/11/14 09:25:34;;;;;;;29.33;3.25;;;13.40;99.90;;;;;;5041531;28;20101;-63
2023/11/14 09:27:59;;;;;;;26.80;4.57;;;13.40;99.90;;;;;;5048843;28;20055;-63
2023/11/14 09:30:25;;;;;;;14.98;2.42;;;13.50;99.90;;;;;;5043345;28;20032;-64
2023/11/14 09:32:50;;;;;;;30.30;3.72;;;13.50;99.90;;;;;;5043428;28;20021;-63
2023/11/14 09:35:16;;;;;;;23.90;3.55;;;13.50;99.90;;;;;;5046716;28;20048;-64
2023/11/14 09:37:42;;;;;;;20.05;2.88;;;13.50;99.90;;;;;;5046600;28;20503;-64
2023/11/14 09:40:08;;;;;;;21.73;2.83;;;13.50;99.90;;;;;;5047979;28;20038;-64
2023/11/14 09:42:37;;;;;;;17.90;2.47;;;13.60;99.90;;;;;;5044506;28;20068;-61
2023/11/14 09:45:04;;;;;;;19.00;2.90;;;13.60;99.90;;;;;;5037727;28;20029;-63
2023/11/14 09:47:30;;;;;;;15.02;2.38;;;13.60;99.90;;;;;;5038148;28;20017;-62
2023/11/14 09:49:56;;;;;;;20.98;2.78;;;13.60;99.90;;;;;;5045122;28;20013;-64
2023/11/14 09:52:22;;;;;;;20.52;2.75;;;13.60;99.90;;;;;;5044899;28;20082;-64
2023/11/14 09:54:48;;;;;;;20.77;2.53;;;13.60;99.90;;;;;;5038939;28;20029;-63
2023/11/14 09:57:15;;;;;;;11.45;2.13;;;13.70;99.90;;;;;;5039944;28;20048;-63
2023/11/14 09:59:43;;;;;;;20.65;2.95;;;13.70;99.90;;;;;;5037394;28;20028;-63
2023/11/14 10:02:08;;;;;;;22.58;3.20;;;13.70;99.90;;;;;;5043815;28;20345;-63
2023/11/14 10:04:34;;;;;;;19.85;2.95;;;13.70;99.90;;;;;;5037328;28;20025;-64
2023/11/14 10:07:00;;;;;;;11.75;2.40;;;13.70;99.90;;;;;;5039432;28;20032;-63
2023/11/14 10:09:26;;;;;;;14.45;2.83;;;13.70;99.90;;;;;;5043051;28;20042;-64
2023/11/14 10:11:53;;;;;;;13.98;2.50;;;13.70;99.90;;;;;;5047459;28;20021;-64
2023/11/14 10:14:21;;;;;;;19.45;3.15;;;13.70;99.90;;;;;;5042170;28;20061;-64
2023/11/14 10:16:59;;;;;;;15.13;2.45;;;13.70;99.90;;;;;;5041655;28;20036;-64
2023/11/14 10:19:25;;;;;;;21.75;3.10;;;13.70;99.90;;;;;;5038185;28;20029;-63
2023/11/14 10:21:51;;;;;;;11.43;2.20;;;13.70;99.90;;;;;;5039632;28;20025;-64
2023/11/14 10:24:18;;;;;;;14.98;2.22;;;13.70;99.90;;;;;;5036723;28;20486;-64
2023/11/14 10:26:51;;;;;;;13.45;2.20;;;13.70;99.90;;;;;;5037251;28;20055;-62
2023/11/14 10:29:18;;;;;;;15.05;1.83;;;13.70;99.90;;;;;;5034660;28;20060;-64
2023/11/14 10:31:43;;;;;;;19.45;2.70;;;13.80;99.90;;;;;;5041879;28;20028;-64
2023/11/14 10:34:30;;;;;;;14.85;1.98;;;13.90;99.90;;;;;;5041332;28;20037;-64
2023/11/14 10:36:58;;;;;;;11.07;2.05;;;13.90;99.90;;;;;;5043665;28;20037;-63
2023/11/14 10:39:25;;;;;;;14.70;2.47;;;13.90;99.90;;;;;;5046803;28;20107;-64
2023/11/14 10:41:54;;;;;;;17.30;2.38;;;13.90;99.90;;;;;;5042576;28;20116;-63
2023/11/14 10:44:21;;;;;;;17.70;2.47;;;13.90;99.90;;;;;;5040131;28;20117;-63
2023/11/14 10:46:51;;;;;;;23.85;2.80;;;13.90;99.90;;;;;;5050730;28;20560;-63
2023/11/14 10:49:20;;;;;;;24.20;3.10;;;13.80;99.90;;;;;;5046801;28;20447;-63
2023/11/14 10:51:47;;;;;;;20.60;2.35;;;13.80;99.90;;;;;;5037867;28;20025;-63
2023/11/14 10:54:13;;;;;;;23.73;4.10;;;13.70;99.90;;;;;;5045057;28;20029;-64
2023/11/14 10:56:39;;;;;;;20.65;3.80;;;13.40;99.90;;;;;;5037989;28;20028;-62
2023/11/14 10:59:09;;;;;;;25.73;3.88;;;13.30;99.90;;;;;;5050174;28;20029;-63
2023/11/14 11:01:44;;;;;;;21.80;2.70;;;13.20;99.90;;;;;;5040143;28;20104;-61
2023/11/14 11:04:14;;;;;;;25.33;3.03;;;13.20;99.90;;;;;;5042332;28;20419;-63
2023/11/14 11:06:40;;;;;;;22.40;3.13;;;13.20;99.90;;;;;;5043371;28;20383;-64
2023/11/14 11:09:05;;;;;;;20.17;2.88;;;13.20;99.90;;;;;;5042054;28;20033;-64
2023/11/14 11:11:38;;;;;;;28.70;3.08;;;13.20;99.90;;;;;;5039823;28;20021;-63
2023/11/14 11:14:06;;;;;;;17.63;2.92;;;13.20;99.90;;;;;;5049839;28;20025;-64
2023/11/14 11:16:49;;;;;;;22.17;3.03;;;13.20;99.90;;;;;;5046097;28;20025;-64
2023/11/14 11:19:21;;;;;;;19.77;2.42;;;13.20;99.90;;;;;;5046093;28;20040;-64
2023/11/14 11:22:17;;;;;;;22.38;3.17;;;13.20;99.90;;;;;;5046544;28;20045;-64
2023/11/14 11:25:26;;;;;;;14.98;2.15;;;13.20;99.90;;;;;;5044201;28;20082;-63
2023/11/14 11:27:52;;;;;;;24.60;3.08;;;13.20;99.90;;;;;;5036287;28;20484;-65
2023/11/14 11:30:18;;;;;;;16.77;2.67;;;13.30;99.90;;;;;;5035969;28;20060;-64
2023/11/14 11:32:45;;;;;;;20.40;3.60;;;13.30;99.90;;;;;;5046185;28;20025;-64
2023/11/14 11:35:19;;;;;;;13.25;2.40;;;13.30;99.90;;;;;;5046011;28;20025;-64
2023/11/14 11:37:50;;;;;;;17.58;2.97;;;13.30;99.90;;;;;;5041104;28;20388;-63
2023/11/14 11:40:21;;;;;;;17.90;2.45;;;13.30;99.90;;;;;;5036754;28;20675;-62
2023/11/14 11:42:49;;;;;;;19.77;2.53;;;13.30;99.90;;;;;;5046533;28;20037;-61
2023/11/14 11:45:30;;;;;;;15.52;2.83;;;13.20;99.90;;;;;;5041264;28;20440;-64
2023/11/14 11:47:59;;;;;;;15.48;3.05;;;13.20;99.90;;;;;;5042966;28;20555;-63
2023/11/14 11:50:35;;;;;;;16.73;2.63;;;13.00;99.90;;;;;;5044959;28;20043;-62
2023/11/14 11:53:06;;;;;;;10.60;1.95;;;12.80;99.90;;;;;;5045480;28;20024;-63
2023/11/14 11:55:35;;;;;;;11.27;1.40;;;12.70;99.90;;;;;;5044338;28;20026;-64
2023/11/14 11:58:02;;;;;;;14.25;1.80;;;12.50;99.90;;;;;;5045372;28;20035;-64
2023/11/14 12:00:30;;;;;;;4.72;1.17;;;12.30;99.90;;;;;;5040159;28;20081;-64
2023/11/14 12:02:58;;;;;;;8.60;1.10;;;12.20;99.90;;;;;;5045158;28;20113;-61
2023/11/14 12:05:28;;;;;;;7.70;1.40;;;12.20;99.90;;;;;;5041538;28;20040;-63
2023/11/14 12:07:58;;;;;;;9.52;1.90;;;12.30;99.90;;;;;;5037117;28;20236;-64
2023/11/14 12:10:24;;;;;;;6.72;1.20;;;12.30;99.90;;;;;;5039641;28;20511;-63
2023/11/14 12:12:54;;;;;;;10.00;1.27;;;12.30;99.90;;;;;;5044493;28;20025;-63
2023/11/14 12:15:23;;;;;;;9.48;2.20;;;12.40;99.90;;;;;;5043659;28;20037;-64
2023/11/14 12:17:50;;;;;;;7.10;1.80;;;12.40;99.90;;;;;;5042607;28;20048;-61
2023/11/14 12:20:16;;;;;;;6.75;1.58;;;12.40;99.90;;;;;;5041928;28;20099;-64
2023/11/14 12:22:43;;;;;;;14.18;3.33;;;12.40;99.90;;;;;;5040314;28;20029;-63
2023/11/14 12:25:10;;;;;;;12.52;2.22;;;12.40;99.90;;;;;;5043859;28;20057;-64
2023/11/14 12:27:35;;;;;;;16.58;2.30;;;12.50;99.90;;;;;;5041278;28;20020;-64
2023/11/14 12:30:19;;;;;;;6.85;1.40;;;12.40;99.90;;;;;;5041224;28;20540;-64
2023/11/14 12:32:44;;;;;;;11.23;1.88;;;12.40;99.90;;;;;;5039772;28;20029;-61
2023/11/14 12:35:10;;;;;;;10.18;1.52;;;12.40;99.90;;;;;;5040577;28;20091;-64